Fatezh, Russia
Current Conditions -  °F | °C
As of 12:00 PM on Monday 22 Dec 2014 (Local Time) from UUOB Reporting Station
Snow Showers Snow Showers  
Wind Chill: 23°   Ceiling: 600
Heat Index: 32°   Visibility: 2.5mi
Dew Point: 32°   Wind: 11mph
Humidity: 100%   Direction: 270°W
Pressure: 29.8"   Gusts: NA
Location:  52.09°N, 35.86°E
Report Text: UUOB 220900Z 27005MPS 4000 -SHSN BKN006CB 00/M00 Q1009 RESHSN29590537 NOSIG
Loading
Personal Weather Stations






























Interactive Weather Map New forecast layout! Learn more

10-Day Weather Forecast

Advertisements
Track Severe Weather on mobile